Time;durP1;ratioP1;P1;durP2;ratioP2;P2;SDS_P1;SDS_P2;PMS_P1;PMS_P2;Temp;Humidity;BMP_temperature;BMP_pressure;BME280_temperature;BME280_humidity;BME280_pressure;Samples;Min_cycle;Max_cycle;Signal;HPM_P1;HPM_P2
2022/07/17 00:00:17;;;;;;;5.60;5.20;;;23.20;45.90;;;;;;5009290;28;20187;-84
2022/07/17 00:02:43;;;;;;;5.18;4.88;;;23.20;46.40;;;;;;5013670;28;20182;-85
2022/07/17 00:05:09;;;;;;;5.70;5.40;;;23.20;46.50;;;;;;5012375;28;20195;-85
2022/07/17 00:07:35;;;;;;;5.40;5.10;;;23.10;46.80;;;;;;5011593;28;20537;-86
2022/07/17 00:10:01;;;;;;;5.57;5.18;;;22.90;47.30;;;;;;5014233;28;20194;-86
2022/07/17 00:12:27;;;;;;;5.35;5.05;;;22.90;47.70;;;;;;5006297;28;20186;-85
2022/07/17 00:14:53;;;;;;;5.32;5.00;;;22.80;48.10;;;;;;5006863;28;20186;-84
2022/07/17 00:17:18;;;;;;;5.57;5.18;;;22.60;48.40;;;;;;5009670;28;20221;-85
2022/07/17 00:19:44;;;;;;;5.57;5.28;;;22.70;48.40;;;;;;5012416;28;20238;-84
2022/07/17 00:22:10;;;;;;;6.05;5.57;;;22.70;48.20;;;;;;4991936;28;20209;-85
2022/07/17 00:24:35;;;;;;;5.50;5.10;;;22.80;47.90;;;;;;5016276;28;20541;-85
2022/07/17 00:27:01;;;;;;;5.40;5.03;;;22.70;49.00;;;;;;5019882;28;20225;-85
2022/07/17 00:29:27;;;;;;;6.05;5.65;;;22.70;49.10;;;;;;5015474;28;20213;-85
2022/07/17 00:31:53;;;;;;;5.82;5.32;;;22.70;48.90;;;;;;4997463;28;20191;-86
2022/07/17 00:34:18;;;;;;;6.20;5.60;;;22.50;49.30;;;;;;5013781;28;20279;-85
2022/07/17 00:36:44;;;;;;;5.88;5.38;;;22.60;49.10;;;;;;4987351;28;20229;-86
2022/07/17 00:39:10;;;;;;;5.45;5.10;;;22.60;49.00;;;;;;5011387;28;20276;-85
2022/07/17 00:41:36;;;;;;;6.03;5.57;;;22.60;49.00;;;;;;5012905;28;20212;-85
2022/07/17 00:44:10;;;;;;;5.43;4.93;;;22.60;48.70;;;;;;5010140;28;20270;-85
2022/07/17 00:46:36;;;;;;;5.28;4.97;;;22.40;49.20;;;;;;5015362;28;20220;-86
2022/07/17 00:49:03;;;;;;;5.50;5.20;;;22.40;49.10;;;;;;5009186;28;20212;-85
2022/07/17 00:51:29;;;;;;;5.85;5.55;;;22.50;48.80;;;;;;5031212;28;20212;-83
2022/07/17 00:53:56;;;;;;;5.68;5.28;;;22.40;48.80;;;;;;5028950;28;20225;-85
2022/07/17 00:56:22;;;;;;;5.45;5.13;;;22.50;48.40;;;;;;5019692;28;20209;-86
2022/07/17 00:58:50;;;;;;;5.63;5.22;;;22.50;48.50;;;;;;5024449;28;20209;-85
2022/07/17 01:01:16;;;;;;;6.20;5.68;;;22.30;48.90;;;;;;5013537;28;20194;-85
2022/07/17 01:03:42;;;;;;;5.95;5.45;;;22.20;49.40;;;;;;5014100;28;20195;-85
2022/07/17 01:06:08;;;;;;;6.28;5.72;;;21.90;50.00;;;;;;5021672;28;20210;-85
2022/07/17 01:08:34;;;;;;;6.10;5.70;;;21.80;50.60;;;;;;5028303;28;20197;-85
2022/07/17 01:11:00;;;;;;;5.63;5.32;;;21.70;50.60;;;;;;5023187;28;20189;-85
2022/07/17 01:13:27;;;;;;;5.78;5.38;;;21.80;50.20;;;;;;5019450;28;20199;-84
2022/07/17 01:15:53;;;;;;;5.32;5.03;;;21.70;50.30;;;;;;5020951;28;20215;-86
2022/07/17 01:18:19;;;;;;;5.45;5.15;;;21.50;50.60;;;;;;5015722;28;20219;-84
2022/07/17 01:20:47;;;;;;;7.53;7.00;;;21.50;51.60;;;;;;5022949;28;20189;-85
2022/07/17 01:23:14;;;;;;;6.50;6.10;;;21.60;51.40;;;;;;5020131;28;20193;-85
2022/07/17 01:25:39;;;;;;;7.00;6.50;;;21.70;50.50;;;;;;5012336;28;20201;-86
2022/07/17 01:28:06;;;;;;;5.57;5.28;;;21.90;50.30;;;;;;5008821;28;20215;-87
2022/07/17 01:30:32;;;;;;;5.65;5.30;;;21.80;50.50;;;;;;5019854;28;20608;-86
2022/07/17 01:32:58;;;;;;;5.88;5.47;;;21.50;51.80;;;;;;5017555;28;20182;-85
2022/07/17 01:35:24;;;;;;;5.57;5.28;;;21.30;52.30;;;;;;5018279;28;20225;-85
2022/07/17 01:37:50;;;;;;;5.93;5.35;;;21.30;52.00;;;;;;5027346;28;20208;-84
2022/07/17 01:40:17;;;;;;;5.30;5.00;;;21.20;52.40;;;;;;5023422;28;20205;-85
2022/07/17 01:42:45;;;;;;;5.57;5.18;;;21.10;53.10;;;;;;5015400;28;20192;-85
2022/07/17 01:45:12;;;;;;;5.38;5.07;;;20.80;53.70;;;;;;5023380;28;20195;-85
2022/07/17 01:47:38;;;;;;;5.35;5.00;;;20.40;55.00;;;;;;4985859;28;20178;-84
2022/07/17 01:50:05;;;;;;;5.63;5.25;;;20.50;55.10;;;;;;5019165;28;20745;-85
2022/07/17 01:52:30;;;;;;;4.95;4.55;;;20.70;54.60;;;;;;5019273;28;20372;-84
2022/07/17 01:54:56;;;;;;;5.38;4.97;;;20.90;53.60;;;;;;5019016;28;20196;-85
2022/07/17 01:57:22;;;;;;;5.53;5.13;;;21.00;52.90;;;;;;5013639;28;20199;-84
2022/07/17 01:59:48;;;;;;;5.28;4.95;;;21.20;52.50;;;;;;5018186;28;20211;-85
2022/07/17 02:02:15;;;;;;;5.53;5.13;;;21.20;52.30;;;;;;5013526;28;20183;-84
2022/07/17 02:04:41;;;;;;;5.22;4.82;;;21.20;52.20;;;;;;5013211;28;20192;-84
2022/07/17 02:07:08;;;;;;;6.15;5.68;;;21.10;52.30;;;;;;5013035;28;20226;-86
2022/07/17 02:09:34;;;;;;;5.68;5.28;;;21.00;52.50;;;;;;5009019;28;20633;-85
2022/07/17 02:11:59;;;;;;;5.68;5.25;;;20.90;53.20;;;;;;5011101;28;20196;-85
2022/07/17 02:14:25;;;;;;;5.28;4.88;;;20.70;54.00;;;;;;5014160;28;20473;-86
2022/07/17 02:16:51;;;;;;;4.97;4.65;;;20.50;54.00;;;;;;5009640;28;20301;-85
2022/07/17 02:19:17;;;;;;;5.60;5.15;;;20.40;54.40;;;;;;5014642;28;20218;-84
2022/07/17 02:21:42;;;;;;;5.72;5.20;;;20.50;54.20;;;;;;5013716;28;20234;-85
2022/07/17 02:24:08;;;;;;;5.35;5.05;;;20.70;53.80;;;;;;4980224;28;20185;-85
2022/07/17 02:26:34;;;;;;;5.55;5.05;;;20.80;53.30;;;;;;4995722;28;20588;-85
2022/07/17 02:29:00;;;;;;;5.53;5.13;;;20.80;52.90;;;;;;5010993;28;20184;-86
2022/07/17 02:31:25;;;;;;;5.95;5.55;;;20.90;52.20;;;;;;4998239;28;20621;-85
2022/07/17 02:33:51;;;;;;;6.60;5.03;;;20.90;51.60;;;;;;5012190;28;20790;-85
2022/07/17 02:36:17;;;;;;;5.25;4.82;;;21.00;52.10;;;;;;5009425;28;20679;-85
2022/07/17 02:38:43;;;;;;;5.50;5.20;;;21.00;52.50;;;;;;5012712;28;20217;-85
2022/07/17 02:41:08;;;;;;;5.60;5.20;;;20.90;52.40;;;;;;5013470;28;20196;-85
2022/07/17 02:43:34;;;;;;;5.60;5.10;;;20.90;52.70;;;;;;5012945;28;20196;-85
2022/07/17 02:46:01;;;;;;;5.25;4.95;;;20.90;52.30;;;;;;5008659;28;20235;-85
2022/07/17 02:48:26;;;;;;;5.35;4.95;;;20.80;51.10;;;;;;5011054;28;20192;-85
2022/07/17 02:50:52;;;;;;;5.35;4.85;;;20.60;52.40;;;;;;5009111;28;20231;-84
2022/07/17 02:53:18;;;;;;;5.63;5.03;;;20.50;53.10;;;;;;5018867;28;20194;-85
2022/07/17 02:55:43;;;;;;;5.22;4.80;;;20.20;52.10;;;;;;5015377;28;20209;-85
2022/07/17 02:58:09;;;;;;;5.32;4.93;;;20.00;52.60;;;;;;5014195;28;20264;-84
2022/07/17 03:00:35;;;;;;;5.22;4.80;;;19.60;53.90;;;;;;5012321;28;20197;-85
2022/07/17 03:03:00;;;;;;;5.53;5.00;;;19.50;55.00;;;;;;5003571;28;20209;-83
2022/07/17 03:05:26;;;;;;;5.53;5.05;;;19.50;55.40;;;;;;4993250;28;20202;-84
2022/07/17 03:07:52;;;;;;;4.78;4.38;;;19.40;55.40;;;;;;4993327;28;20196;-85
2022/07/17 03:10:18;;;;;;;5.35;4.97;;;19.40;56.00;;;;;;5025683;28;20220;-85
2022/07/17 03:12:43;;;;;;;6.05;4.90;;;19.40;55.50;;;;;;5018194;28;20185;-84
2022/07/17 03:15:09;;;;;;;5.15;4.70;;;19.50;55.70;;;;;;5020725;28;20185;-84
2022/07/17 03:17:37;;;;;;;5.35;4.95;;;19.50;55.10;;;;;;4997999;28;20224;-86
2022/07/17 03:20:03;;;;;;;4.93;4.53;;;19.40;56.10;;;;;;4991615;28;20549;-85
2022/07/17 03:22:29;;;;;;;5.07;4.65;;;19.50;54.90;;;;;;5015220;28;20193;-85
2022/07/17 03:24:54;;;;;;;4.97;4.65;;;19.60;54.70;;;;;;5024307;28;20185;-85
2022/07/17 03:27:20;;;;;;;6.45;4.80;;;19.60;54.90;;;;;;5018500;28;20197;-86
2022/07/17 03:29:46;;;;;;;5.10;4.70;;;19.60;53.90;;;;;;5014522;28;20220;-85
2022/07/17 03:32:13;;;;;;;4.82;4.38;;;19.60;55.30;;;;;;5019517;28;20198;-86
2022/07/17 03:34:38;;;;;;;5.40;4.93;;;19.60;55.10;;;;;;5012673;28;20276;-85
2022/07/17 03:37:05;;;;;;;5.13;4.72;;;19.50;55.20;;;;;;5025177;28;20275;-84
2022/07/17 03:39:30;;;;;;;5.28;4.88;;;19.60;55.70;;;;;;5039945;28;20188;-83
2022/07/17 03:41:56;;;;;;;4.72;4.43;;;19.50;56.10;;;;;;5016681;28;20208;-83
2022/07/17 03:44:22;;;;;;;5.18;4.78;;;19.40;55.80;;;;;;5023859;28;20656;-84
2022/07/17 03:46:49;;;;;;;4.93;4.63;;;19.50;55.60;;;;;;5016637;28;20249;-84
2022/07/17 03:49:15;;;;;;;5.40;4.95;;;19.50;55.00;;;;;;5019806;28;20181;-83
2022/07/17 03:51:41;;;;;;;5.30;4.90;;;19.60;55.40;;;;;;5019469;28;20576;-85
2022/07/17 03:54:07;;;;;;;5.82;5.22;;;19.70;55.10;;;;;;5021448;28;20193;-84
2022/07/17 03:56:33;;;;;;;5.50;5.10;;;19.50;54.60;;;;;;5023572;28;20224;-83
2022/07/17 03:58:59;;;;;;;4.78;4.38;;;19.50;54.00;;;;;;5032064;28;20192;-84
2022/07/17 04:01:24;;;;;;;4.72;4.43;;;19.60;54.50;;;;;;5010134;28;20202;-85
2022/07/17 04:03:50;;;;;;;7.03;4.47;;;19.60;54.70;;;;;;5022547;28;20225;-84
2022/07/17 04:06:16;;;;;;;5.10;4.60;;;19.70;54.00;;;;;;5028834;28;20214;-85
2022/07/17 04:08:41;;;;;;;4.55;4.20;;;19.80;53.40;;;;;;5024076;28;20189;-84
2022/07/17 04:11:07;;;;;;;4.53;4.18;;;19.80;52.70;;;;;;5020806;28;20204;-85
2022/07/17 04:13:33;;;;;;;4.50;4.20;;;19.80;52.60;;;;;;5028559;28;20218;-84
2022/07/17 04:16:02;;;;;;;4.72;4.30;;;19.80;53.00;;;;;;5023187;28;20242;-83
2022/07/17 04:18:30;;;;;;;5.20;4.35;;;19.80;52.60;;;;;;5024474;28;20206;-84
2022/07/17 04:21:01;;;;;;;4.60;4.20;;;19.80;52.30;;;;;;5022375;28;20186;-84
2022/07/17 04:23:29;;;;;;;4.90;4.50;;;19.90;52.40;;;;;;5021761;28;20205;-84
2022/07/17 04:25:55;;;;;;;5.07;4.57;;;19.80;52.60;;;;;;5017497;28;20216;-84
2022/07/17 04:28:21;;;;;;;4.63;4.32;;;19.80;52.90;;;;;;5015563;28;20269;-84
2022/07/17 04:30:47;;;;;;;5.00;4.60;;;19.60;52.00;;;;;;5004841;28;20630;-84
2022/07/17 04:33:13;;;;;;;5.03;4.53;;;19.40;52.90;;;;;;5015104;28;20186;-84
2022/07/17 04:35:39;;;;;;;4.88;4.32;;;19.30;53.40;;;;;;5002090;28;20217;-84
2022/07/17 04:38:06;;;;;;;4.38;4.05;;;19.20;53.80;;;;;;5019117;28;20210;-84
2022/07/17 04:40:33;;;;;;;4.85;4.45;;;19.40;54.00;;;;;;5025478;28;20242;-84
2022/07/17 04:42:59;;;;;;;5.10;4.47;;;19.70;53.10;;;;;;5019548;28;20205;-84
2022/07/17 04:45:25;;;;;;;4.78;4.35;;;19.70;52.40;;;;;;5016932;28;20201;-83
2022/07/17 04:47:51;;;;;;;4.57;4.35;;;19.70;52.00;;;;;;5019937;28;20392;-84
2022/07/17 04:50:17;;;;;;;4.45;4.05;;;19.70;52.10;;;;;;5016471;28;20190;-84
2022/07/17 04:52:43;;;;;;;4.60;4.30;;;19.60;51.80;;;;;;5023194;28;20214;-84
2022/07/17 04:55:09;;;;;;;4.80;4.40;;;19.70;52.30;;;;;;5022593;28;20657;-86
2022/07/17 04:57:35;;;;;;;4.78;4.28;;;19.60;51.20;;;;;;5012955;28;20222;-84
2022/07/17 05:00:03;;;;;;;3.80;3.53;;;19.60;51.40;;;;;;4997921;28;20403;-84
2022/07/17 05:02:28;;;;;;;6.55;4.45;;;19.70;51.00;;;;;;5017946;28;20264;-82
2022/07/17 05:04:54;;;;;;;4.85;4.38;;;19.50;51.20;;;;;;4987388;28;20652;-86
2022/07/17 05:07:20;;;;;;;5.10;4.10;;;19.20;51.40;;;;;;5020911;28;20246;-85
2022/07/17 05:09:46;;;;;;;5.13;4.60;;;19.00;52.00;;;;;;5017189;28;20197;-85
2022/07/17 05:12:12;;;;;;;5.70;4.03;;;18.90;52.80;;;;;;5014746;28;20251;-85
2022/07/17 05:14:38;;;;;;;4.53;4.20;;;18.90;53.10;;;;;;5012113;28;20193;-85
2022/07/17 05:17:03;;;;;;;4.68;4.20;;;18.80;53.50;;;;;;5022730;28;20217;-85
2022/07/17 05:19:29;;;;;;;4.77;4.33;;;18.80;53.60;;;;;;5007812;28;20184;-83
2022/07/17 05:21:55;;;;;;;4.80;4.30;;;18.60;54.60;;;;;;5014981;28;20195;-87
2022/07/17 05:24:20;;;;;;;4.50;4.20;;;18.50;55.30;;;;;;5018327;28;20189;-84
2022/07/17 05:26:46;;;;;;;4.60;4.20;;;18.40;55.90;;;;;;4998628;28;20234;-85
2022/07/17 05:29:12;;;;;;;4.60;4.30;;;18.50;55.20;;;;;;4994091;28;20662;-85
2022/07/17 05:31:37;;;;;;;4.40;4.10;;;18.40;54.60;;;;;;5020869;28;20219;-84
2022/07/17 05:34:03;;;;;;;4.67;4.37;;;18.40;54.30;;;;;;5010506;28;20202;-84
2022/07/17 05:36:29;;;;;;;4.40;4.00;;;18.60;54.00;;;;;;4994879;28;20217;-85
2022/07/17 05:38:55;;;;;;;4.50;4.20;;;18.50;53.60;;;;;;4996572;28;20226;-85
2022/07/17 05:41:20;;;;;;;4.30;3.90;;;18.50;53.60;;;;;;4991354;28;20200;-85
2022/07/17 05:43:46;;;;;;;4.27;3.97;;;18.40;53.80;;;;;;4999761;28;20197;-83
2022/07/17 05:46:11;;;;;;;4.20;3.67;;;18.40;53.80;;;;;;5014775;28;20212;-84
2022/07/17 05:48:37;;;;;;;4.20;3.77;;;18.40;53.80;;;;;;4983671;28;20261;-85
2022/07/17 05:51:03;;;;;;;4.73;3.70;;;18.30;53.50;;;;;;5013949;28;20209;-84
2022/07/17 05:53:29;;;;;;;4.47;4.07;;;18.40;53.80;;;;;;5014884;28;20651;-85
2022/07/17 05:55:55;;;;;;;4.33;3.93;;;18.50;53.30;;;;;;5012754;28;20216;-85
2022/07/17 05:58:21;;;;;;;4.30;3.90;;;18.50;53.80;;;;;;5014641;28;20228;-85
2022/07/17 06:00:48;;;;;;;6.97;4.40;;;18.60;53.70;;;;;;5012465;28;20265;-85
2022/07/17 06:03:15;;;;;;;5.07;4.00;;;18.80;52.80;;;;;;4996969;28;20998;-84
2022/07/17 06:05:41;;;;;;;4.03;3.73;;;18.90;51.40;;;;;;5001748;28;20218;-84
2022/07/17 06:08:07;;;;;;;5.87;3.87;;;19.00;50.80;;;;;;5018597;28;20232;-83
2022/07/17 06:10:32;;;;;;;4.18;3.72;;;19.20;50.30;;;;;;5021016;28;20223;-85
2022/07/17 06:12:58;;;;;;;4.35;4.00;;;19.30;49.70;;;;;;5015487;28;20202;-83
2022/07/17 06:15:24;;;;;;;3.90;3.60;;;19.20;50.10;;;;;;5015185;28;20221;-84
2022/07/17 06:17:50;;;;;;;4.32;3.45;;;19.30;50.20;;;;;;5017621;28;20221;-84
2022/07/17 06:20:17;;;;;;;4.43;3.60;;;19.40;50.50;;;;;;4982432;28;20204;-85
2022/07/17 06:22:43;;;;;;;4.30;3.90;;;19.50;49.90;;;;;;5019525;28;20182;-84
2022/07/17 06:25:10;;;;;;;3.88;3.67;;;19.30;50.20;;;;;;5001860;28;20190;-85
2022/07/17 06:27:35;;;;;;;3.92;3.67;;;19.50;51.00;;;;;;5022528;28;20228;-82
2022/07/17 06:30:01;;;;;;;3.97;3.67;;;19.50;50.80;;;;;;5029619;28;20195;-84
2022/07/17 06:32:27;;;;;;;7.77;4.00;;;19.60;50.30;;;;;;5022958;28;20175;-82
2022/07/17 06:34:53;;;;;;;4.22;3.78;;;19.60;50.50;;;;;;5027035;28;20195;-82
2022/07/17 06:37:19;;;;;;;3.78;3.50;;;19.60;50.00;;;;;;5022048;28;20213;-84
2022/07/17 06:39:44;;;;;;;3.90;3.60;;;19.70;49.00;;;;;;4993600;28;20305;-86
2022/07/17 06:42:10;;;;;;;3.92;3.55;;;19.70;49.20;;;;;;4998006;28;20216;-85
2022/07/17 06:44:37;;;;;;;4.03;3.72;;;19.80;48.30;;;;;;5012126;28;20204;-86
2022/07/17 06:47:03;;;;;;;4.10;3.80;;;19.80;48.40;;;;;;5012222;28;20219;-84
2022/07/17 06:49:29;;;;;;;4.93;3.92;;;19.80;48.80;;;;;;5012057;28;20189;-84
2022/07/17 06:51:55;;;;;;;4.22;3.80;;;19.90;48.50;;;;;;5014738;28;20201;-84
2022/07/17 06:54:23;;;;;;;4.18;3.78;;;20.10;47.90;;;;;;4996336;28;20186;-84
2022/07/17 06:56:49;;;;;;;4.40;4.00;;;20.00;47.70;;;;;;5002518;28;20190;-85
2022/07/17 06:59:15;;;;;;;4.13;3.83;;;20.10;48.00;;;;;;5003497;28;20181;-85
2022/07/17 07:01:41;;;;;;;4.20;3.88;;;20.10;47.80;;;;;;5002636;28;20285;-85
2022/07/17 07:04:06;;;;;;;3.90;3.70;;;20.20;48.30;;;;;;5019796;28;20551;-85
2022/07/17 07:06:32;;;;;;;4.65;3.80;;;20.30;47.10;;;;;;5002887;28;20221;-85
2022/07/17 07:08:58;;;;;;;4.30;3.88;;;20.40;47.40;;;;;;5019620;28;20188;-85
2022/07/17 07:11:24;;;;;;;4.75;3.47;;;20.50;46.70;;;;;;5019541;28;20556;-84
2022/07/17 07:13:50;;;;;;;3.60;3.40;;;20.60;46.20;;;;;;5016355;28;20262;-84
2022/07/17 07:16:16;;;;;;;4.30;3.88;;;20.60;45.80;;;;;;4997614;28;20221;-84
2022/07/17 07:18:41;;;;;;;5.18;3.50;;;20.60;46.30;;;;;;5016418;28;20214;-86
2022/07/17 07:21:07;;;;;;;7.38;3.70;;;20.70;46.60;;;;;;5005848;28;20181;-86
2022/07/17 07:23:33;;;;;;;4.43;4.05;;;20.80;46.60;;;;;;5020148;28;20194;-85
2022/07/17 07:25:59;;;;;;;4.22;3.83;;;20.80;46.60;;;;;;5007227;28;20303;-85
2022/07/17 07:28:25;;;;;;;4.63;4.18;;;20.80;46.20;;;;;;5017194;28;20965;-86
2022/07/17 07:30:50;;;;;;;4.05;3.75;;;21.00;44.90;;;;;;5011183;28;20273;-84
2022/07/17 07:33:16;;;;;;;4.20;3.90;;;21.20;44.80;;;;;;5009785;28;20201;-86
2022/07/17 07:35:42;;;;;;;4.18;3.78;;;21.20;44.50;;;;;;5005209;28;20216;-84
2022/07/17 07:38:09;;;;;;;3.85;3.55;;;21.40;44.50;;;;;;5010225;28;20209;-85
2022/07/17 07:40:35;;;;;;;4.70;3.95;;;21.50;43.50;;;;;;5009775;28;20189;-83
2022/07/17 07:43:01;;;;;;;4.85;3.90;;;21.50;43.00;;;;;;5008690;28;20197;-83
2022/07/17 07:45:28;;;;;;;4.20;3.90;;;21.50;43.60;;;;;;5006042;28;20199;-85
2022/07/17 07:47:54;;;;;;;5.68;3.95;;;21.70;43.60;;;;;;5002787;28;20199;-85
2022/07/17 07:50:23;;;;;;;3.90;3.67;;;21.90;43.00;;;;;;5014331;28;20202;-86
2022/07/17 07:52:49;;;;;;;4.10;3.80;;;22.00;41.40;;;;;;5011303;28;20241;-85
2022/07/17 07:55:16;;;;;;;4.20;3.83;;;22.00;41.90;;;;;;5014136;28;20314;-85
2022/07/17 07:57:42;;;;;;;4.53;4.22;;;22.30;41.10;;;;;;5014964;28;20240;-85
2022/07/17 08:00:10;;;;;;;4.50;4.20;;;22.50;41.30;;;;;;5009347;28;20194;-85
2022/07/17 08:02:35;;;;;;;4.72;4.40;;;22.40;41.30;;;;;;5014893;28;20189;-84
2022/07/17 08:05:01;;;;;;;4.65;4.25;;;22.50;40.70;;;;;;5017674;28;20352;-85
2022/07/17 08:07:28;;;;;;;4.68;4.38;;;22.60;40.40;;;;;;4999338;28;20602;-84
2022/07/17 08:09:54;;;;;;;4.88;4.57;;;22.70;41.00;;;;;;5015953;28;20213;-85
2022/07/17 08:12:20;;;;;;;4.60;4.20;;;23.00;39.90;;;;;;5017366;28;20190;-86
2022/07/17 08:14:46;;;;;;;4.55;4.20;;;23.10;39.90;;;;;;4999518;28;20194;-85
2022/07/17 08:17:12;;;;;;;4.38;4.05;;;23.20;39.70;;;;;;5021739;28;20290;-85
2022/07/17 08:19:37;;;;;;;4.30;4.00;;;23.40;39.50;;;;;;5001527;28;20251;-84
2022/07/17 08:22:03;;;;;;;4.45;4.05;;;23.50;38.50;;;;;;5003630;28;20214;-85
2022/07/17 08:24:28;;;;;;;4.32;4.03;;;23.50;38.50;;;;;;5022593;28;20193;-86
2022/07/17 08:26:54;;;;;;;4.68;3.92;;;23.70;37.90;;;;;;5022423;28;20296;-85
2022/07/17 08:29:20;;;;;;;4.03;3.80;;;23.90;37.60;;;;;;5027917;28;20225;-85
2022/07/17 08:31:46;;;;;;;5.07;4.18;;;24.00;38.20;;;;;;5019388;28;20216;-85
2022/07/17 08:34:13;;;;;;;4.47;4.07;;;24.10;37.20;;;;;;5017532;28;20662;-85
2022/07/17 08:36:39;;;;;;;4.63;3.83;;;24.20;36.70;;;;;;5021088;28;20250;-85
2022/07/17 08:39:05;;;;;;;4.03;3.83;;;24.40;37.20;;;;;;5021805;28;20300;-85
2022/07/17 08:41:36;;;;;;;4.20;3.90;;;24.60;36.40;;;;;;5017420;28;20189;-84
2022/07/17 08:44:03;;;;;;;3.63;3.42;;;24.70;36.70;;;;;;5023175;28;20194;-84
2022/07/17 08:46:30;;;;;;;4.30;4.00;;;24.80;36.00;;;;;;5018968;28;20205;-85
2022/07/17 08:48:59;;;;;;;4.65;4.20;;;24.90;36.70;;;;;;5020805;28;20212;-85
2022/07/17 08:51:28;;;;;;;4.43;4.03;;;24.90;36.00;;;;;;5014022;28;20275;-84
2022/07/17 08:53:55;;;;;;;4.15;3.75;;;24.70;35.70;;;;;;5016025;28;20194;-84
2022/07/17 08:56:21;;;;;;;3.85;3.55;;;24.70;35.80;;;;;;5017073;28;20283;-85
2022/07/17 08:58:47;;;;;;;3.72;3.53;;;24.70;35.90;;;;;;5015580;28;20213;-86
2022/07/17 09:01:15;;;;;;;4.10;3.75;;;24.90;35.50;;;;;;5011398;28;20217;-85
2022/07/17 09:03:43;;;;;;;4.55;4.15;;;25.10;35.30;;;;;;5009883;28;20202;-85
2022/07/17 09:06:20;;;;;;;4.13;3.92;;;25.30;35.20;;;;;;5014298;28;20229;-84
2022/07/17 09:08:45;;;;;;;4.35;4.05;;;25.60;33.70;;;;;;5015181;28;20243;-85
2022/07/17 09:11:11;;;;;;;4.63;4.28;;;25.70;33.50;;;;;;5020319;28;20182;-85
2022/07/17 09:13:37;;;;;;;4.60;4.20;;;25.90;33.10;;;;;;5002985;28;20202;-84
2022/07/17 09:16:07;;;;;;;5.45;4.10;;;26.10;32.40;;;;;;5007673;28;20236;-83
2022/07/17 09:18:57;;;;;;;5.53;4.00;;;26.20;33.20;;;;;;5032050;28;20217;-83
2022/07/17 09:21:25;;;;;;;4.47;4.18;;;26.10;33.40;;;;;;5014066;28;20189;-87
2022/07/17 09:24:07;;;;;;;4.32;4.03;;;26.00;33.70;;;;;;4981338;28;20193;-85
2022/07/17 09:26:35;;;;;;;4.35;4.00;;;25.90;33.10;;;;;;5018085;28;20291;-84
2022/07/17 09:29:01;;;;;;;4.50;4.20;;;26.00;33.90;;;;;;5009977;28;20645;-85
2022/07/17 09:31:29;;;;;;;4.75;4.35;;;25.90;32.70;;;;;;5013758;28;20253;-85
2022/07/17 09:33:55;;;;;;;4.35;4.00;;;26.10;33.50;;;;;;5006664;28;20202;-85
2022/07/17 09:36:22;;;;;;;4.43;4.13;;;26.20;33.20;;;;;;5026927;28;20204;-85
2022/07/17 09:38:52;;;;;;;4.38;4.10;;;26.50;32.80;;;;;;5017512;28;20776;-85
2022/07/17 09:41:20;;;;;;;5.22;4.18;;;26.40;33.00;;;;;;5017947;28;20193;-84
2022/07/17 09:43:50;;;;;;;4.78;4.32;;;26.50;33.10;;;;;;5017754;28;20182;-85
2022/07/17 09:46:24;;;;;;;5.30;4.43;;;26.80;32.40;;;;;;5014882;28;20201;-85
2022/07/17 09:48:57;;;;;;;4.18;3.97;;;27.10;32.80;;;;;;5021649;28;20550;-84
2022/07/17 09:51:28;;;;;;;4.90;4.70;;;27.10;31.40;;;;;;4999211;28;20716;-86
2022/07/17 09:53:59;;;;;;;4.28;4.05;;;27.20;31.40;;;;;;5023021;28;20185;-83
2022/07/17 09:56:28;;;;;;;8.13;4.90;;;27.20;31.10;;;;;;5015510;28;20221;-84
2022/07/17 09:58:59;;;;;;;4.53;4.13;;;27.50;30.70;;;;;;5013810;28;20503;-83
2022/07/17 10:01:25;;;;;;;4.88;4.55;;;27.50;30.50;;;;;;5022252;28;20689;-83
2022/07/17 10:03:53;;;;;;;4.55;4.30;;;27.40;31.30;;;;;;5018777;28;20190;-84
2022/07/17 10:06:20;;;;;;;4.43;4.13;;;27.60;30.30;;;;;;5025605;28;20221;-86
2022/07/17 10:08:46;;;;;;;4.30;4.00;;;27.80;30.00;;;;;;5002076;28;20177;-84
2022/07/17 10:11:15;;;;;;;4.70;4.30;;;27.90;29.80;;;;;;5015607;28;20774;-86
2022/07/17 10:13:44;;;;;;;4.82;4.10;;;28.20;29.10;;;;;;5003080;28;20265;-88
2022/07/17 10:16:11;;;;;;;5.72;4.10;;;28.00;28.90;;;;;;5000071;28;20217;-86
2022/07/17 10:18:42;;;;;;;5.78;4.60;;;27.80;28.80;;;;;;5019792;28;20221;-86
2022/07/17 10:21:19;;;;;;;4.45;4.25;;;28.10;29.20;;;;;;5017154;28;20193;-85
2022/07/17 10:24:09;;;;;;;4.00;3.80;;;28.50;28.30;;;;;;5019780;28;20248;-85
2022/07/17 10:26:38;;;;;;;4.68;4.38;;;28.60;27.60;;;;;;5014488;28;20221;-86
2022/07/17 10:29:08;;;;;;;4.47;4.18;;;29.00;26.90;;;;;;5016592;28;20181;-85
2022/07/17 10:31:35;;;;;;;4.28;4.07;;;29.00;25.80;;;;;;5018753;28;20182;-86
2022/07/17 10:34:05;;;;;;;4.70;4.28;;;29.30;26.00;;;;;;5002933;28;20688;-86
2022/07/17 10:36:41;;;;;;;4.03;3.83;;;29.50;25.20;;;;;;5014713;28;20209;-86
2022/07/17 10:39:14;;;;;;;3.92;3.72;;;29.70;25.40;;;;;;5014032;28;20215;-84
2022/07/17 10:41:41;;;;;;;4.13;3.92;;;29.80;23.60;;;;;;5015207;28;20177;-85
2022/07/17 10:44:07;;;;;;;4.32;4.10;;;29.80;24.10;;;;;;5017918;28;20574;-86
2022/07/17 10:46:33;;;;;;;4.47;4.25;;;29.80;24.10;;;;;;5018484;28;20204;-85
2022/07/17 10:49:03;;;;;;;4.45;4.00;;;29.40;25.00;;;;;;5016291;28;20277;-85
2022/07/17 10:51:30;;;;;;;4.13;3.92;;;29.30;25.70;;;;;;5012262;28;20236;-86
2022/07/17 10:53:58;;;;;;;4.18;3.88;;;29.70;24.20;;;;;;5017424;28;20277;-86
2022/07/17 10:56:25;;;;;;;4.57;4.32;;;30.20;23.60;;;;;;5011721;28;20639;-86
2022/07/17 10:58:53;;;;;;;4.22;4.03;;;30.50;23.30;;;;;;5015839;28;20213;-86
2022/07/17 11:01:20;;;;;;;4.60;4.20;;;30.50;23.60;;;;;;5019999;28;20319;-86
2022/07/17 11:03:47;;;;;;;4.53;4.22;;;30.70;23.20;;;;;;5020676;28;20185;-86
2022/07/17 11:06:19;;;;;;;4.88;4.45;;;31.20;23.20;;;;;;5015066;28;20226;-86
2022/07/17 11:08:48;;;;;;;4.90;4.60;;;31.50;22.30;;;;;;5011133;28;20198;-85
2022/07/17 11:11:14;;;;;;;4.90;4.60;;;31.50;23.50;;;;;;5012944;28;20188;-85
2022/07/17 11:13:40;;;;;;;5.22;4.40;;;31.80;23.10;;;;;;5020413;28;20180;-86
2022/07/17 11:16:06;;;;;;;4.20;3.90;;;31.20;23.80;;;;;;4978781;28;20206;-84
2022/07/17 11:18:33;;;;;;;4.68;4.38;;;30.80;23.10;;;;;;5013050;28;20213;-86
2022/07/17 11:21:00;;;;;;;4.38;4.15;;;31.10;24.00;;;;;;5017474;28;20185;-84
2022/07/17 11:23:29;;;;;;;4.30;4.10;;;31.50;23.30;;;;;;5009322;28;20194;-85
2022/07/17 11:26:02;;;;;;;4.53;4.22;;;31.60;21.40;;;;;;4998767;28;20232;-85
2022/07/17 11:28:29;;;;;;;4.53;4.22;;;31.80;21.40;;;;;;5021745;28;20178;-85
2022/07/17 11:30:54;;;;;;;4.03;3.83;;;31.90;21.60;;;;;;5018242;28;20560;-85
2022/07/17 11:33:20;;;;;;;4.68;4.38;;;32.00;20.70;;;;;;5013317;28;20268;-86
2022/07/17 11:35:47;;;;;;;4.45;4.25;;;32.10;20.50;;;;;;4982236;28;20958;-86
2022/07/17 11:38:12;;;;;;;4.68;4.32;;;31.80;20.50;;;;;;5015860;28;20715;-86
2022/07/17 11:40:50;;;;;;;4.63;4.20;;;31.60;20.70;;;;;;5019071;28;20177;-86
2022/07/17 11:43:16;;;;;;;4.15;3.92;;;32.00;19.90;;;;;;5021150;28;20201;-85
2022/07/17 11:45:43;;;;;;;4.55;4.25;;;32.30;19.80;;;;;;4999172;28;20209;-86
2022/07/17 11:48:09;;;;;;;4.72;4.30;;;32.20;19.90;;;;;;5016301;28;20197;-85
2022/07/17 11:50:34;;;;;;;4.75;4.45;;;32.40;20.60;;;;;;5016811;28;20189;-87
2022/07/17 11:53:05;;;;;;;4.80;4.50;;;32.70;21.10;;;;;;5021702;28;20197;-86
2022/07/17 11:55:38;;;;;;;4.80;4.60;;;32.80;21.70;;;;;;5015087;28;20223;-87
2022/07/17 11:58:04;;;;;;;4.60;4.40;;;32.50;21.40;;;;;;5013476;28;20301;-86
2022/07/17 12:00:30;;;;;;;4.55;4.35;;;32.50;21.60;;;;;;5016504;28;20730;-85
2022/07/17 12:03:04;;;;;;;4.38;4.18;;;32.30;21.50;;;;;;5022563;28;20268;-85
2022/07/17 12:05:33;;;;;;;4.28;3.97;;;32.30;20.30;;;;;;5026084;28;20204;-83
2022/07/17 12:07:59;;;;;;;4.30;4.10;;;32.30;20.70;;;;;;5033690;28;20198;-83
2022/07/17 12:10:29;;;;;;;5.22;4.93;;;32.60;20.50;;;;;;5021523;28;20209;-84
2022/07/17 12:12:57;;;;;;;5.28;4.88;;;33.20;22.50;;;;;;5019827;28;20260;-86
2022/07/17 12:15:46;;;;;;;5.10;4.80;;;33.60;23.50;;;;;;5000078;28;20245;-86
2022/07/17 12:18:27;;;;;;;5.72;5.30;;;33.70;22.20;;;;;;5015267;28;20219;-87
2022/07/17 12:21:03;;;;;;;4.80;4.60;;;33.60;22.20;;;;;;5016761;28;20182;-86
2022/07/17 12:23:40;;;;;;;5.40;5.00;;;33.80;21.80;;;;;;4990983;28;20200;-84
2022/07/17 12:26:19;;;;;;;5.10;4.70;;;34.50;20.50;;;;;;5016355;28;20227;-86
2022/07/17 12:28:45;;;;;;;5.18;4.70;;;34.60;20.30;;;;;;5015472;28;20659;-86
2022/07/17 12:31:12;;;;;;;5.88;4.90;;;34.50;21.10;;;;;;5010520;28;20455;-85
2022/07/17 12:33:38;;;;;;;5.07;4.75;;;34.00;21.70;;;;;;5010137;28;20201;-85
2022/07/17 12:36:04;;;;;;;6.28;4.65;;;34.00;22.30;;;;;;5016219;28;20709;-85
2022/07/17 12:38:30;;;;;;;4.72;4.45;;;34.00;22.60;;;;;;5012829;28;20214;-85
2022/07/17 12:40:56;;;;;;;5.25;4.95;;;34.00;23.00;;;;;;5009391;28;20177;-85
2022/07/17 12:43:23;;;;;;;4.80;4.60;;;33.70;22.60;;;;;;5003375;28;20194;-86
2022/07/17 12:45:49;;;;;;;4.95;4.57;;;33.20;22.10;;;;;;5006396;28;20559;-86